Time;durP1;ratioP1;P1;durP2;ratioP2;P2;SDS_P1;SDS_P2;PMS_P1;PMS_P2;Temp;Humidity;BMP_temperature;BMP_pressure;BME280_temperature;BME280_humidity;BME280_pressure;Samples;Min_cycle;Max_cycle;Signal;HPM_P1;HPM_P2
2023/08/11 00:00:08;;;;;;;7.25;4.97;;;16.30;88.20;;;;;;5062621;28;20055;-76
2023/08/11 00:02:33;;;;;;;6.60;4.82;;;16.30;88.80;;;;;;5035538;28;20494;-74
2023/08/11 00:04:59;;;;;;;6.22;5.15;;;16.20;89.10;;;;;;5057455;28;20058;-76
2023/08/11 00:07:25;;;;;;;6.68;5.50;;;16.20;89.50;;;;;;5071382;28;20946;-73
2023/08/11 00:09:51;;;;;;;6.90;4.95;;;16.20;89.90;;;;;;5060011;28;20550;-75
2023/08/11 00:12:16;;;;;;;7.95;5.18;;;16.20;90.10;;;;;;5048287;28;20056;-75
2023/08/11 00:14:42;;;;;;;10.38;6.15;;;16.10;90.20;;;;;;5052140;28;20043;-74
2023/08/11 00:17:08;;;;;;;8.20;5.65;;;16.10;90.40;;;;;;5051240;28;20060;-74
2023/08/11 00:19:34;;;;;;;8.93;6.13;;;16.10;90.60;;;;;;5042102;28;20094;-77
2023/08/11 00:22:00;;;;;;;8.57;6.35;;;15.40;90.70;;;;;;5028820;28;20094;-74
2023/08/11 00:24:26;;;;;;;8.43;6.03;;;16.10;91.10;;;;;;5043471;28;20066;-72
2023/08/11 00:26:52;;;;;;;11.35;6.72;;;16.10;91.30;;;;;;5041745;28;20440;-74
2023/08/11 00:29:18;;;;;;;9.35;6.57;;;16.00;91.60;;;;;;5057530;28;20044;-76
2023/08/11 00:31:45;;;;;;;8.38;6.55;;;16.00;91.90;;;;;;5044722;28;20685;-74
2023/08/11 00:34:11;;;;;;;8.27;6.40;;;16.00;92.20;;;;;;5064826;28;20071;-74
2023/08/11 00:36:36;;;;;;;9.77;7.20;;;16.00;92.40;;;;;;5044038;28;20155;-74
2023/08/11 00:39:02;;;;;;;8.68;7.20;;;16.00;92.60;;;;;;5043973;28;20044;-75
2023/08/11 00:41:28;;;;;;;10.07;7.38;;;16.00;92.90;;;;;;5056253;28;20125;-75
2023/08/11 00:43:54;;;;;;;10.55;6.90;;;15.90;93.10;;;;;;5045760;28;20055;-74
2023/08/11 00:46:22;;;;;;;10.00;7.53;;;15.90;93.30;;;;;;5045463;28;20044;-78
2023/08/11 00:48:51;;;;;;;10.00;7.43;;;15.90;93.50;;;;;;5047705;28;20073;-74
2023/08/11 00:51:18;;;;;;;8.95;7.35;;;15.90;93.70;;;;;;5061052;28;20059;-78
2023/08/11 00:53:48;;;;;;;9.23;7.22;;;15.80;93.90;;;;;;5064628;28;20063;-78
2023/08/11 00:56:14;;;;;;;11.07;7.75;;;15.90;94.20;;;;;;5061984;28;20044;-75
2023/08/11 00:58:42;;;;;;;10.20;8.07;;;15.80;94.30;;;;;;5046954;28;20052;-74
2023/08/11 01:01:10;;;;;;;9.65;7.20;;;15.80;94.50;;;;;;5038511;28;20071;-73
2023/08/11 01:03:40;;;;;;;10.48;8.40;;;15.80;94.70;;;;;;5047819;28;20551;-74
2023/08/11 01:06:23;;;;;;;10.57;7.82;;;15.80;94.90;;;;;;5056775;28;20043;-74
2023/08/11 01:09:27;;;;;;;11.65;8.52;;;15.70;95.10;;;;;;5054636;28;20048;-77
2023/08/11 01:12:25;;;;;;;11.35;8.25;;;15.70;95.40;;;;;;5050917;28;20048;-77
2023/08/11 01:15:25;;;;;;;11.48;9.23;;;15.70;95.30;;;;;;5057540;28;20075;-77
2023/08/11 01:17:52;;;;;;;11.63;8.88;;;15.70;95.40;;;;;;5058125;28;20565;-76
2023/08/11 01:20:18;;;;;;;12.27;8.77;;;15.60;95.30;;;;;;5026778;28;20097;-76
2023/08/11 01:22:47;;;;;;;11.40;8.70;;;15.60;95.40;;;;;;5046129;28;20428;-76
2023/08/11 01:25:14;;;;;;;11.55;8.95;;;15.60;95.70;;;;;;5047038;28;20040;-73
2023/08/11 01:27:52;;;;;;;10.90;8.55;;;15.60;95.80;;;;;;5054272;28;20125;-76
2023/08/11 01:30:18;;;;;;;14.02;9.68;;;15.60;96.00;;;;;;5043753;28;20287;-76
2023/08/11 01:32:45;;;;;;;13.10;9.00;;;15.50;96.00;;;;;;5029357;28;20145;-73
2023/08/11 01:35:10;;;;;;;11.48;9.55;;;15.50;96.10;;;;;;5044529;28;20513;-75
2023/08/11 01:37:36;;;;;;;12.75;10.23;;;15.50;96.10;;;;;;5063302;28;20052;-74
2023/08/11 01:40:10;;;;;;;12.50;9.50;;;15.50;96.30;;;;;;5054157;28;20062;-78
2023/08/11 01:42:42;;;;;;;14.02;9.90;;;14.80;96.10;;;;;;5054763;28;20052;-75
2023/08/11 01:45:11;;;;;;;14.25;9.90;;;15.50;96.50;;;;;;5055915;28;20051;-77
2023/08/11 01:47:39;;;;;;;12.88;10.90;;;15.50;96.50;;;;;;5055466;28;20069;-75
2023/08/11 01:50:07;;;;;;;14.15;10.18;;;15.40;96.60;;;;;;5054909;28;20043;-78
2023/08/11 01:52:39;;;;;;;14.20;11.00;;;15.40;96.70;;;;;;5052901;28;20075;-72
2023/08/11 01:55:06;;;;;;;12.18;9.82;;;15.40;96.80;;;;;;5043703;28;20591;-76
2023/08/11 01:57:34;;;;;;;17.10;10.98;;;15.40;96.90;;;;;;5057508;28;20054;-77
2023/08/11 01:59:59;;;;;;;13.88;11.20;;;15.40;97.00;;;;;;5056743;28;20155;-73
2023/08/11 02:02:26;;;;;;;14.25;11.10;;;15.40;97.10;;;;;;5042906;28;20402;-73
2023/08/11 02:04:52;;;;;;;14.23;11.45;;;15.30;97.10;;;;;;5038405;28;20500;-75
2023/08/11 02:07:17;;;;;;;12.88;11.30;;;15.30;97.20;;;;;;5034006;28;20205;-77
2023/08/11 02:09:43;;;;;;;13.00;11.18;;;15.30;97.30;;;;;;5058777;28;20036;-76
2023/08/11 02:12:09;;;;;;;14.20;12.32;;;15.30;97.40;;;;;;5055301;28;20158;-73
2023/08/11 02:14:35;;;;;;;15.27;12.15;;;15.30;97.50;;;;;;5059252;28;20055;-76
2023/08/11 02:17:00;;;;;;;14.65;12.07;;;15.20;97.60;;;;;;5031107;28;20159;-77
2023/08/11 02:19:26;;;;;;;17.80;13.27;;;15.20;97.70;;;;;;5062968;28;20658;-73
2023/08/11 02:21:53;;;;;;;16.10;13.45;;;15.20;98.10;;;;;;5058598;28;20075;-73
2023/08/11 02:24:18;;;;;;;14.95;12.80;;;15.20;97.90;;;;;;5058873;28;20127;-73
2023/08/11 02:26:44;;;;;;;18.15;13.00;;;15.20;98.00;;;;;;5058234;28;20550;-76
2023/08/11 02:29:10;;;;;;;16.73;13.07;;;15.20;98.10;;;;;;5061439;28;20575;-76
2023/08/11 02:31:35;;;;;;;15.55;13.10;;;15.20;98.10;;;;;;5059816;28;20087;-75
2023/08/11 02:34:01;;;;;;;17.13;12.85;;;15.20;98.20;;;;;;5033386;28;20056;-74
2023/08/11 02:36:27;;;;;;;16.05;13.20;;;15.20;98.20;;;;;;5046360;28;20059;-77
2023/08/11 02:38:53;;;;;;;17.13;13.38;;;15.20;98.30;;;;;;5031943;28;20486;-77
2023/08/11 02:41:19;;;;;;;17.73;12.90;;;15.20;98.30;;;;;;5053796;28;20488;-74
2023/08/11 02:43:45;;;;;;;15.90;13.43;;;15.20;98.40;;;;;;5059420;28;20055;-77
2023/08/11 02:46:11;;;;;;;17.48;14.05;;;15.20;98.40;;;;;;5060571;28;20039;-73
2023/08/11 02:48:39;;;;;;;18.02;13.70;;;15.10;98.50;;;;;;5054259;28;20055;-77
2023/08/11 02:51:05;;;;;;;21.58;15.13;;;15.20;98.60;;;;;;5062397;28;20108;-74
2023/08/11 02:53:31;;;;;;;17.92;14.52;;;15.20;98.60;;;;;;5058846;28;20055;-75
2023/08/11 02:56:00;;;;;;;17.20;13.75;;;15.20;98.80;;;;;;5063832;28;20178;-77
2023/08/11 02:58:27;;;;;;;17.15;14.25;;;15.10;98.90;;;;;;5049048;28;20109;-73
2023/08/11 03:00:53;;;;;;;18.25;14.60;;;15.10;99.00;;;;;;5051278;28;20050;-74
2023/08/11 03:03:19;;;;;;;18.65;15.13;;;15.10;99.10;;;;;;5015094;28;20052;-74
2023/08/11 03:05:45;;;;;;;16.45;14.55;;;14.60;99.00;;;;;;5018481;28;21381;-77
2023/08/11 03:08:11;;;;;;;19.13;14.63;;;15.10;99.30;;;;;;5044754;28;20482;-74
2023/08/11 03:10:37;;;;;;;19.48;14.73;;;15.10;99.40;;;;;;5053850;28;20051;-77
2023/08/11 03:13:02;;;;;;;17.40;14.90;;;15.10;99.50;;;;;;5060967;28;21093;-74
2023/08/11 03:15:28;;;;;;;17.83;15.35;;;15.00;99.60;;;;;;5043827;28;20109;-76
2023/08/11 03:17:57;;;;;;;19.48;15.55;;;15.10;99.70;;;;;;5045483;28;20054;-75
2023/08/11 03:20:24;;;;;;;19.30;14.85;;;15.00;99.80;;;;;;5057286;28;20055;-74
2023/08/11 03:22:50;;;;;;;19.85;15.15;;;15.00;99.80;;;;;;5060156;28;20152;-76
2023/08/11 03:25:15;;;;;;;16.42;14.18;;;15.00;99.90;;;;;;5058765;28;20044;-72
2023/08/11 03:27:42;;;;;;;17.88;15.40;;;15.00;99.90;;;;;;5044912;28;20093;-72
2023/08/11 03:30:12;;;;;;;17.20;14.45;;;15.00;99.90;;;;;;5056713;28;20102;-73
2023/08/11 03:32:38;;;;;;;18.48;15.32;;;15.00;99.90;;;;;;5044671;28;20110;-76
2023/08/11 03:35:05;;;;;;;21.25;16.05;;;15.00;99.90;;;;;;5044585;28;20036;-74
2023/08/11 03:37:32;;;;;;;18.08;14.82;;;15.00;99.90;;;;;;5043444;28;20052;-75
2023/08/11 03:39:58;;;;;;;21.05;16.02;;;15.00;99.90;;;;;;5025339;28;20059;-77
2023/08/11 03:42:24;;;;;;;19.52;15.75;;;15.00;99.90;;;;;;5063542;28;20047;-76
2023/08/11 03:44:51;;;;;;;17.77;15.38;;;15.00;99.90;;;;;;5041155;28;20083;-72
2023/08/11 03:47:20;;;;;;;17.58;14.75;;;14.90;99.90;;;;;;5060303;28;20054;-77
2023/08/11 03:49:46;;;;;;;18.35;15.48;;;14.90;99.90;;;;;;5055995;28;20044;-74
2023/08/11 03:52:12;;;;;;;19.98;16.10;;;14.90;99.90;;;;;;5045448;28;20070;-74
2023/08/11 03:54:38;;;;;;;19.65;16.00;;;14.90;99.90;;;;;;5055178;28;20136;-73
2023/08/11 03:57:06;;;;;;;20.67;16.83;;;14.90;99.90;;;;;;5062581;28;20052;-77
2023/08/11 03:59:32;;;;;;;19.23;16.60;;;14.90;99.90;;;;;;5046449;28;20410;-75
2023/08/11 04:01:58;;;;;;;19.58;16.95;;;14.90;99.90;;;;;;5042733;28;20040;-73
2023/08/11 04:04:23;;;;;;;20.02;16.27;;;14.90;99.90;;;;;;5042996;28;20055;-75
2023/08/11 04:06:51;;;;;;;19.85;16.40;;;14.90;99.90;;;;;;5042001;28;20119;-78
2023/08/11 04:09:18;;;;;;;18.92;16.92;;;14.90;99.90;;;;;;5056768;28;20506;-75
2023/08/11 04:11:44;;;;;;;20.27;16.50;;;14.90;99.90;;;;;;5042272;28;20043;-73
2023/08/11 04:14:10;;;;;;;19.30;16.58;;;14.90;99.90;;;;;;5041658;28;20063;-76
2023/08/11 04:16:36;;;;;;;22.70;17.23;;;14.80;99.90;;;;;;5051357;28;20055;-77
2023/08/11 04:19:02;;;;;;;21.23;16.55;;;14.80;99.90;;;;;;5057305;28;20097;-74
2023/08/11 04:21:28;;;;;;;19.77;16.10;;;14.80;99.90;;;;;;5042108;28;20140;-73
2023/08/11 04:23:54;;;;;;;19.23;15.68;;;14.80;99.90;;;;;;5058237;28;20291;-73
2023/08/11 04:26:20;;;;;;;17.70;15.80;;;14.80;99.90;;;;;;5040990;28;20557;-77
2023/08/11 04:28:45;;;;;;;19.95;15.70;;;14.80;99.90;;;;;;5058223;28;20513;-76
2023/08/11 04:31:13;;;;;;;16.88;14.05;;;14.80;99.90;;;;;;5025868;28;20153;-73
2023/08/11 04:33:39;;;;;;;17.52;15.70;;;14.80;99.90;;;;;;5055043;28;20126;-77
2023/08/11 04:36:05;;;;;;;17.30;15.10;;;14.80;99.90;;;;;;5037115;28;20097;-77
2023/08/11 04:38:31;;;;;;;20.27;16.08;;;14.80;99.90;;;;;;5057799;28;20433;-74
2023/08/11 04:40:59;;;;;;;20.23;16.33;;;14.80;99.90;;;;;;5055849;28;20040;-73
2023/08/11 04:43:29;;;;;;;18.30;16.23;;;14.90;99.90;;;;;;5029069;28;20776;-77
2023/08/11 04:45:54;;;;;;;19.35;15.48;;;14.90;99.90;;;;;;5041100;28;20518;-73
2023/08/11 04:48:21;;;;;;;21.17;15.73;;;14.90;99.90;;;;;;5055389;28;20056;-76
2023/08/11 04:50:53;;;;;;;19.67;15.45;;;14.90;99.90;;;;;;5038350;28;20056;-74
2023/08/11 04:53:20;;;;;;;18.35;15.93;;;14.90;99.90;;;;;;5045213;28;20039;-75
2023/08/11 04:55:46;;;;;;;18.67;14.80;;;14.90;99.90;;;;;;5037510;28;20122;-76
2023/08/11 04:58:13;;;;;;;23.38;17.30;;;14.90;99.90;;;;;;5038310;28;20159;-77
2023/08/11 05:00:39;;;;;;;16.98;15.00;;;15.00;99.90;;;;;;5039876;28;20059;-77
2023/08/11 05:03:04;;;;;;;16.80;15.00;;;15.00;99.90;;;;;;5074358;28;20071;-77
2023/08/11 05:05:31;;;;;;;18.02;15.50;;;15.00;99.90;;;;;;5044644;28;20048;-72
2023/08/11 05:07:57;;;;;;;15.10;13.05;;;15.10;99.90;;;;;;5049888;28;20062;-77
2023/08/11 05:10:22;;;;;;;18.58;14.82;;;15.10;99.90;;;;;;5055877;28;20055;-76
2023/08/11 05:12:49;;;;;;;17.13;15.32;;;15.20;99.90;;;;;;5026012;28;20445;-75
2023/08/11 05:15:15;;;;;;;20.02;15.23;;;15.20;99.90;;;;;;5057279;28;20081;-74
2023/08/11 05:17:41;;;;;;;18.98;14.32;;;15.20;99.90;;;;;;5074142;28;20056;-77
2023/08/11 05:20:07;;;;;;;17.80;15.85;;;15.30;99.90;;;;;;5049256;28;20805;-76
2023/08/11 05:22:34;;;;;;;16.38;13.98;;;15.30;99.90;;;;;;5040758;28;20044;-73
2023/08/11 05:25:03;;;;;;;16.27;13.90;;;15.30;99.90;;;;;;5046485;28;20750;-73
2023/08/11 05:27:28;;;;;;;19.38;15.52;;;15.40;99.90;;;;;;5040748;28;20063;-73
2023/08/11 05:29:54;;;;;;;18.33;13.35;;;15.50;99.90;;;;;;5053384;28;20676;-73
2023/08/11 05:32:20;;;;;;;16.35;14.52;;;15.50;99.90;;;;;;5035081;28;20394;-73
2023/08/11 05:34:45;;;;;;;17.58;14.23;;;15.60;99.90;;;;;;5074231;28;20051;-73
2023/08/11 05:37:12;;;;;;;16.80;13.57;;;15.60;99.90;;;;;;5051277;28;20051;-75
2023/08/11 05:39:41;;;;;;;15.85;14.15;;;15.70;99.90;;;;;;5021603;28;20048;-73
2023/08/11 05:42:07;;;;;;;16.75;14.82;;;15.80;99.90;;;;;;5044024;28;20147;-74
2023/08/11 05:44:33;;;;;;;18.20;15.27;;;15.80;99.90;;;;;;5053329;28;20044;-76
2023/08/11 05:46:59;;;;;;;18.55;14.52;;;15.90;99.90;;;;;;5055115;28;20130;-76
2023/08/11 05:49:25;;;;;;;16.95;14.48;;;16.00;99.90;;;;;;5030472;28;20492;-76
2023/08/11 05:51:51;;;;;;;16.30;13.23;;;16.00;99.90;;;;;;5036260;28;20043;-77
2023/08/11 05:54:17;;;;;;;17.20;13.40;;;16.10;99.90;;;;;;5050636;28;20474;-77
2023/08/11 05:56:43;;;;;;;15.27;13.02;;;16.20;99.90;;;;;;5032905;28;20383;-74
2023/08/11 05:59:09;;;;;;;18.08;14.00;;;16.30;99.90;;;;;;5047930;28;20127;-72
2023/08/11 06:01:35;;;;;;;17.70;13.73;;;16.40;99.90;;;;;;5044259;28;20086;-74
2023/08/11 06:04:02;;;;;;;16.10;14.40;;;16.50;99.90;;;;;;5056511;28;20185;-75
2023/08/11 06:06:28;;;;;;;16.25;14.25;;;16.60;99.90;;;;;;5046323;28;20063;-74
2023/08/11 06:08:54;;;;;;;17.73;13.75;;;16.70;99.90;;;;;;5049611;28;20040;-77
2023/08/11 06:11:21;;;;;;;16.52;14.57;;;16.80;99.90;;;;;;5059486;28;20091;-74
2023/08/11 06:13:47;;;;;;;15.60;13.90;;;16.90;99.90;;;;;;5045209;28;20052;-77
2023/08/11 06:16:12;;;;;;;17.52;14.00;;;17.00;99.90;;;;;;5060768;28;20543;-75
2023/08/11 06:18:38;;;;;;;14.40;12.90;;;17.10;99.90;;;;;;5031984;28;20421;-75
2023/08/11 06:21:05;;;;;;;17.25;13.70;;;17.20;99.90;;;;;;5031813;28;20117;-74
2023/08/11 06:23:32;;;;;;;15.95;12.05;;;17.30;99.90;;;;;;5057087;28;20641;-77
2023/08/11 06:25:57;;;;;;;14.10;11.75;;;17.40;99.90;;;;;;5033916;28;20383;-76
2023/08/11 06:28:23;;;;;;;14.07;11.70;;;17.50;99.90;;;;;;5049924;28;20051;-76
2023/08/11 06:30:49;;;;;;;14.27;11.52;;;17.70;99.90;;;;;;5059449;28;20044;-74
2023/08/11 06:33:15;;;;;;;14.85;11.10;;;17.80;99.90;;;;;;5053079;28;20063;-76
2023/08/11 06:35:42;;;;;;;12.40;10.35;;;17.90;99.90;;;;;;5041986;28;20152;-74
2023/08/11 06:38:10;;;;;;;11.88;10.63;;;18.10;99.90;;;;;;5040573;28;20058;-76
2023/08/11 06:40:38;;;;;;;14.70;10.75;;;18.20;99.90;;;;;;5056144;28;20062;-76
2023/08/11 06:43:06;;;;;;;13.70;10.23;;;18.30;99.90;;;;;;5058462;28;20035;-77
2023/08/11 06:45:32;;;;;;;13.25;10.43;;;18.50;99.90;;;;;;5042982;28;20032;-77
2023/08/11 06:47:58;;;;;;;14.60;10.45;;;18.60;99.90;;;;;;5036743;28;20051;-77
2023/08/11 06:50:24;;;;;;;14.43;10.23;;;18.80;99.90;;;;;;5037783;28;20219;-76
2023/08/11 06:52:50;;;;;;;10.55;8.98;;;18.90;99.80;;;;;;5042365;28;20047;-75
2023/08/11 06:55:16;;;;;;;11.18;9.90;;;19.10;99.50;;;;;;5044557;28;20101;-76
2023/08/11 06:57:42;;;;;;;11.68;9.00;;;18.60;99.00;;;;;;5047179;28;20089;-78
2023/08/11 07:00:08;;;;;;;12.43;9.18;;;19.40;98.80;;;;;;5015535;28;20085;-75
2023/08/11 07:02:35;;;;;;;12.68;9.68;;;19.60;98.40;;;;;;5048859;28;20100;-77
2023/08/11 07:05:02;;;;;;;13.85;9.60;;;20.20;98.10;;;;;;5062261;28;20044;-78
2023/08/11 07:07:28;;;;;;;11.48;9.15;;;20.00;97.60;;;;;;5064244;28;20059;-78
2023/08/11 07:09:57;;;;;;;10.45;9.00;;;20.20;96.90;;;;;;5046705;28;20040;-78
2023/08/11 07:12:23;;;;;;;12.48;8.65;;;20.30;96.20;;;;;;5058439;28;20035;-77
2023/08/11 07:14:51;;;;;;;10.07;8.55;;;20.50;95.60;;;;;;5060717;28;20044;-76
2023/08/11 07:17:17;;;;;;;10.38;8.05;;;20.60;94.90;;;;;;5061583;28;20047;-78
2023/08/11 07:19:42;;;;;;;11.07;8.15;;;20.80;94.30;;;;;;5060746;28;20065;-77
2023/08/11 07:22:08;;;;;;;10.63;8.25;;;21.00;93.60;;;;;;5026313;28;20051;-76
2023/08/11 07:24:35;;;;;;;9.98;7.90;;;21.10;92.80;;;;;;5061351;28;20259;-77
2023/08/11 07:27:02;;;;;;;9.60;7.72;;;21.50;92.00;;;;;;5047090;28;20585;-77
2023/08/11 07:29:28;;;;;;;10.63;7.85;;;21.40;91.00;;;;;;5045254;28;20058;-76
2023/08/11 07:31:57;;;;;;;10.82;7.78;;;21.60;90.20;;;;;;5053785;28;20292;-75
2023/08/11 07:34:22;;;;;;;11.50;7.72;;;21.80;89.30;;;;;;5058479;28;20928;-78
2023/08/11 07:36:48;;;;;;;8.70;6.93;;;21.90;87.40;;;;;;5045062;28;20048;-77
2023/08/11 07:39:17;;;;;;;10.77;6.90;;;22.10;85.70;;;;;;5060566;28;20497;-79
2023/08/11 07:41:43;;;;;;;10.27;7.43;;;22.20;83.10;;;;;;5026975;28;20055;-76
2023/08/11 07:44:09;;;;;;;9.93;7.13;;;22.40;81.20;;;;;;5054531;28;20063;-78
2023/08/11 07:46:35;;;;;;;11.65;7.45;;;22.60;79.00;;;;;;5025804;28;20063;-78
2023/08/11 07:49:01;;;;;;;9.25;6.82;;;22.70;76.30;;;;;;5026231;28;20040;-76
2023/08/11 07:51:26;;;;;;;11.23;6.40;;;22.90;73.50;;;;;;5026715;28;20043;-78
2023/08/11 07:53:52;;;;;;;10.55;6.53;;;23.10;71.70;;;;;;5058093;28;20134;-78
2023/08/11 07:56:18;;;;;;;12.98;7.22;;;23.30;70.10;;;;;;5066090;28;20039;-76
2023/08/11 07:58:45;;;;;;;10.80;6.43;;;23.40;66.70;;;;;;5050601;28;20108;-75
2023/08/11 08:01:11;;;;;;;9.43;6.40;;;23.60;64.80;;;;;;5060859;28;20113;-78
2023/08/11 08:03:37;;;;;;;10.75;6.70;;;23.60;61.60;;;;;;5050089;28;20483;-77
2023/08/11 08:06:04;;;;;;;10.60;6.63;;;23.60;59.00;;;;;;5048430;28;20086;-76
2023/08/11 08:08:33;;;;;;;9.18;6.30;;;23.70;58.60;;;;;;5051218;28;20044;-77
2023/08/11 08:11:00;;;;;;;11.52;7.07;;;23.80;56.80;;;;;;5059409;28;20072;-74
2023/08/11 08:13:26;;;;;;;9.80;6.35;;;24.00;56.80;;;;;;5062426;28;20051;-75
2023/08/11 08:15:52;;;;;;;11.07;6.38;;;24.00;55.20;;;;;;5052236;28;20371;-76
2023/08/11 08:18:17;;;;;;;10.65;6.68;;;24.30;54.60;;;;;;5061627;28;20054;-77
2023/08/11 08:20:43;;;;;;;8.93;5.82;;;24.40;52.70;;;;;;5073017;28;20088;-76
2023/08/11 08:23:09;;;;;;;12.32;6.22;;;24.50;49.60;;;;;;5057503;28;20160;-75
2023/08/11 08:25:35;;;;;;;10.00;6.22;;;24.60;47.20;;;;;;5044309;28;20050;-78
2023/08/11 08:28:01;;;;;;;9.85;6.03;;;24.70;45.20;;;;;;5045275;28;20048;-76
2023/08/11 08:30:27;;;;;;;9.52;5.88;;;24.60;42.20;;;;;;5058551;28;20363;-78
2023/08/11 08:32:53;;;;;;;10.73;5.20;;;24.60;40.90;;;;;;5054028;28;20071;-75
2023/08/11 08:35:19;;;;;;;9.30;5.28;;;24.60;42.00;;;;;;5045268;28;20071;-76
2023/08/11 08:37:45;;;;;;;8.88;5.07;;;24.70;41.70;;;;;;5061485;28;20044;-77
2023/08/11 08:40:12;;;;;;;7.30;4.20;;;24.70;39.40;;;;;;5041486;28;20046;-78
2023/08/11 08:42:41;;;;;;;8.38;4.47;;;24.80;36.10;;;;;;5046725;28;20040;-78
2023/08/11 08:45:07;;;;;;;7.22;4.05;;;24.90;36.20;;;;;;5043592;28;20040;-78
2023/08/11 08:47:35;;;;;;;6.80;4.20;;;25.00;35.00;;;;;;5056123;28;20044;-77
2023/08/11 08:50:03;;;;;;;8.88;4.20;;;25.20;33.10;;;;;;5040052;28;20036;-77
2023/08/11 08:52:30;;;;;;;7.60;4.10;;;25.40;31.20;;;;;;5058112;28;20079;-75
2023/08/11 08:54:56;;;;;;;6.28;4.47;;;25.60;26.90;;;;;;5055542;28;20193;-79
2023/08/11 08:57:26;;;;;;;6.30;4.32;;;25.70;22.00;;;;;;5045469;28;20115;-78
2023/08/11 08:59:52;;;;;;;6.82;4.70;;;25.80;17.90;;;;;;5058990;28;20139;-79
2023/08/11 09:02:20;;;;;;;9.07;5.03;;;25.90;15.50;;;;;;5040325;28;20047;-79
2023/08/11 09:04:47;;;;;;;8.38;4.72;;;26.00;12.10;;;;;;5062050;28;20039;-74
2023/08/11 09:07:13;;;;;;;8.40;5.18;;;26.10;11.60;;;;;;5066200;28;20040;-76
2023/08/11 09:09:39;;;;;;;9.95;5.65;;;26.30;9.50;;;;;;5064652;28;20057;-75
2023/08/11 09:12:05;;;;;;;8.70;5.50;;;26.50;2.80;;;;;;5070499;28;20842;-80
2023/08/11 09:14:31;;;;;;;8.68;5.65;;;26.60;1.00;;;;;;5054960;28;20051;-76
2023/08/11 09:17:00;;;;;;;8.55;5.13;;;26.60;1.00;;;;;;5054078;28;20453;-78
2023/08/11 09:19:26;;;;;;;7.32;5.68;;;26.40;1.00;;;;;;5049089;28;20591;-76
2023/08/11 09:21:52;;;;;;;8.77;5.40;;;26.40;1.00;;;;;;5052427;28;20702;-76
2023/08/11 09:24:18;;;;;;;8.55;5.53;;;26.30;1.00;;;;;;5069306;28;20097;-75
2023/08/11 09:26:45;;;;;;;6.97;4.40;;;26.50;1.00;;;;;;5052332;28;20127;-74
2023/08/11 09:29:14;;;;;;;8.50;5.72;;;26.70;1.00;;;;;;5062013;28;20052;-76
2023/08/11 09:31:41;;;;;;;7.82;5.68;;;26.70;1.00;;;;;;5035462;28;20044;-75
2023/08/11 09:34:17;;;;;;;9.32;5.93;;;26.80;1.00;;;;;;5044833;28;20518;-78
2023/08/11 09:36:44;;;;;;;8.73;5.72;;;26.90;1.00;;;;;;5050684;28;20044;-78
2023/08/11 09:39:11;;;;;;;8.00;5.88;;;26.80;1.00;;;;;;5065245;28;21824;-76
2023/08/11 09:42:03;;;;;;;8.30;5.35;;;26.60;1.00;;;;;;5068883;28;20043;-75
2023/08/11 09:44:29;;;;;;;11.68;5.85;;;26.50;1.00;;;;;;5058147;28;20048;-78
2023/08/11 09:46:55;;;;;;;7.65;4.90;;;26.30;1.00;;;;;;5043429;28;20051;-79
2023/08/11 09:49:21;;;;;;;7.35;5.15;;;26.30;1.00;;;;;;5044201;28;20158;-74
2023/08/11 09:51:50;;;;;;;8.02;5.63;;;26.50;1.00;;;;;;5076414;28;20052;-78
2023/08/11 09:54:17;;;;;;;7.78;5.43;;;26.90;1.00;;;;;;5046015;28;20048;-76
2023/08/11 09:56:44;;;;;;;9.70;5.53;;;27.20;1.00;;;;;;5042198;28;20212;-75
2023/08/11 09:59:20;;;;;;;8.40;5.88;;;27.50;1.00;;;;;;5055665;28;20052;-76
2023/08/11 10:01:47;;;;;;;8.18;5.32;;;27.60;1.00;;;;;;5059998;28;20340;-75
2023/08/11 10:04:21;;;;;;;8.38;5.97;;;27.50;1.00;;;;;;5046359;28;20100;-75
2023/08/11 10:06:52;;;;;;;7.50;5.90;;;27.40;1.00;;;;;;5057196;28;20119;-80
2023/08/11 10:09:23;;;;;;;8.30;5.85;;;27.20;1.00;;;;;;5061368;28;20060;-77
2023/08/11 10:11:51;;;;;;;9.52;6.80;;;27.00;1.00;;;;;;5066670;28;20054;-78
2023/08/11 10:14:20;;;;;;;9.82;6.63;;;27.00;1.00;;;;;;5071490;28;20105;-73
2023/08/11 10:16:46;;;;;;;12.32;6.30;;;26.90;1.00;;;;;;5049891;28;20131;-76
2023/08/11 10:19:13;;;;;;;8.18;6.22;;;26.90;1.00;;;;;;5036732;28;20053;-75
2023/08/11 10:21:40;;;;;;;9.77;6.18;;;26.90;1.00;;;;;;5061942;28;20126;-77
2023/08/11 10:24:06;;;;;;;9.88;6.55;;;26.90;1.00;;;;;;5069512;28;20047;-75
2023/08/11 10:26:33;;;;;;;10.35;6.68;;;26.80;1.00;;;;;;5057371;28;20536;-77
2023/08/11 10:29:00;;;;;;;12.68;7.18;;;26.80;1.00;;;;;;5073072;28;20062;-76
2023/08/11 10:31:26;;;;;;;9.93;6.65;;;27.00;1.00;;;;;;5058138;28;20047;-76
2023/08/11 10:33:53;;;;;;;9.38;6.15;;;27.00;1.00;;;;;;5055737;28;20066;-75
2023/08/11 10:36:24;;;;;;;11.88;7.05;;;27.10;1.00;;;;;;5076356;28;20118;-79
2023/08/11 10:39:20;;;;;;;11.25;6.80;;;27.20;1.00;;;;;;5035517;28;20047;-76
2023/08/11 10:41:46;;;;;;;8.57;6.70;;;27.50;1.00;;;;;;5050066;28;20154;-75
2023/08/11 10:44:17;;;;;;;8.98;6.38;;;27.60;1.00;;;;;;5049103;28;20066;-76
2023/08/11 10:46:44;;;;;;;11.50;7.45;;;27.60;1.00;;;;;;5050576;28;20040;-76
2023/08/11 10:49:10;;;;;;;9.10;6.75;;;27.60;1.00;;;;;;5069763;28;20501;-79
2023/08/11 10:51:37;;;;;;;8.70;6.35;;;27.60;1.00;;;;;;5052519;28;20047;-75
2023/08/11 10:54:10;;;;;;;7.30;6.00;;;27.80;1.00;;;;;;5054942;28;20059;-78
2023/08/11 10:56:41;;;;;;;8.95;6.07;;;28.20;1.00;;;;;;5053793;28;20130;-75
2023/08/11 10:59:17;;;;;;;10.27;6.68;;;28.60;1.00;;;;;;5047493;28;20241;-75
2023/08/11 11:01:50;;;;;;;11.07;7.13;;;28.80;1.00;;;;;;5072677;28;20082;-78
2023/08/11 11:04:18;;;;;;;10.07;6.10;;;28.90;1.00;;;;;;5063631;28;20062;-75
2023/08/11 11:06:45;;;;;;;10.18;7.00;;;29.00;1.00;;;;;;5067523;28;20047;-79
2023/08/11 11:09:13;;;;;;;9.93;6.68;;;29.20;1.00;;;;;;5058052;28;21974;-79
2023/08/11 11:11:39;;;;;;;9.18;6.07;;;29.40;1.00;;;;;;5034794;28;20051;-77
2023/08/11 11:14:10;;;;;;;9.75;6.93;;;29.60;1.00;;;;;;5063208;28;20073;-79
2023/08/11 11:16:37;;;;;;;9.95;6.80;;;29.80;1.00;;;;;;5050639;28;20806;-76
2023/08/11 11:19:05;;;;;;;6.78;5.63;;;30.10;1.00;;;;;;5047120;28;20054;-74
2023/08/11 11:21:32;;;;;;;9.10;6.18;;;30.20;1.00;;;;;;5048534;28;20115;-75
2023/08/11 11:23:58;;;;;;;10.45;6.97;;;30.20;1.00;;;;;;5065541;28;20051;-75
2023/08/11 11:26:31;;;;;;;11.65;6.55;;;30.30;1.00;;;;;;5063519;28;20055;-77
2023/08/11 11:29:01;;;;;;;11.77;7.28;;;30.50;1.00;;;;;;5041148;28;20040;-78
2023/08/11 11:31:32;;;;;;;10.43;6.85;;;30.60;99.90;;;;;;5044712;28;20100;-76
2023/08/11 11:33:58;;;;;;;9.00;6.38;;;30.60;99.90;;;;;;5055407;28;20494;-76
2023/08/11 11:36:24;;;;;;;10.73;6.20;;;30.60;99.90;;;;;;5063956;28;20250;-76
2023/08/11 11:38:51;;;;;;;7.70;6.05;;;30.80;99.90;;;;;;5080815;28;20106;-76
2023/08/11 11:41:18;;;;;;;9.95;6.60;;;30.90;99.90;;;;;;5056987;28;20058;-78
2023/08/11 11:43:49;;;;;;;10.15;6.40;;;31.10;99.90;;;;;;5073843;28;20074;-80
2023/08/11 11:46:17;;;;;;;8.65;6.55;;;31.30;99.90;;;;;;5056182;28;20502;-79
2023/08/11 11:48:50;;;;;;;8.18;6.30;;;31.30;47.90;;;;;;5056703;28;20044;-75
2023/08/11 11:51:19;;;;;;;10.32;6.90;;;31.10;1.00;;;;;;5059498;28;20067;-79
2023/08/11 11:53:45;;;;;;;8.25;5.95;;;31.00;1.00;;;;;;5044196;28;20039;-79
2023/08/11 11:56:16;;;;;;;8.65;6.45;;;31.00;99.90;;;;;;5047052;28;20073;-77
2023/08/11 11:58:48;;;;;;;10.93;7.70;;;31.10;99.90;;;;;;5043018;28;20044;-80
2023/08/11 12:01:19;;;;;;;12.23;7.00;;;31.00;1.00;;;;;;5043976;28;20072;-77
2023/08/11 12:03:48;;;;;;;9.73;7.10;;;31.00;1.00;;;;;;5047053;28;20052;-79
2023/08/11 12:06:15;;;;;;;11.55;9.10;;;30.90;5.30;;;;;;5058053;28;20457;-76
2023/08/11 12:08:41;;;;;;;10.55;8.18;;;31.00;1.00;;;;;;5047303;28;20044;-76
2023/08/11 12:11:09;;;;;;;14.00;8.00;;;30.90;1.00;;;;;;5039830;28;20059;-79
2023/08/11 12:13:41;;;;;;;8.77;6.97;;;30.80;99.90;;;;;;5055753;28;20056;-79
2023/08/11 12:16:09;;;;;;;9.70;7.65;;;30.90;1.00;;;;;;5053484;28;20046;-78
2023/08/11 12:18:39;;;;;;;12.23;8.30;;;30.90;16.60;;;;;;5048735;28;20372;-78
2023/08/11 12:21:06;;;;;;;12.43;9.05;;;30.70;1.00;;;;;;5056392;28;20055;-79
2023/08/11 12:23:32;;;;;;;12.10;8.40;;;30.60;99.90;;;;;;5040334;28;20047;-80
2023/08/11 12:25:58;;;;;;;11.57;8.50;;;30.50;99.90;;;;;;5043121;28;20040;-75
2023/08/11 12:28:26;;;;;;;11.45;9.05;;;30.50;1.00;;;;;;5058741;28;20119;-76
2023/08/11 12:30:52;;;;;;;10.27;8.43;;;30.40;1.00;;;;;;5050584;28;20665;-78
2023/08/11 12:33:18;;;;;;;11.20;7.38;;;30.40;73.60;;;;;;5034910;28;20052;-76
2023/08/11 12:35:46;;;;;;;7.95;6.40;;;30.40;99.90;;;;;;5063391;28;20387;-75
2023/08/11 12:38:12;;;;;;;7.50;5.88;;;30.30;84.90;;;;;;5051632;28;20182;-76